Terminal Aerodrome Forecast
Issued by NWS

Home | Current Version | Previous Version | Text Only | Print | Product List | Glossary Off
Versions: 1 2 3 4 5 6 7 8 9 10 11 12 13 14 15 16 17 18 19 20

000
FTUS43 KBIS 172300
TAFMOT
TAF
KMOT 172327Z 1800/1824 06008KT P6SM SKC
     FM180600 11006KT P6SM SKC
     FM181100 14008KT P6SM SCT025
     FM181700 16017G26KT P6SM SCT130=

USA.gov is the U.S. government's official web portal to all federal, state and local government web resources and services.